createdAt,value
2018-03-30T00:02:01.563Z,11.43
2018-03-30T00:04:30.164Z,10.88
2018-03-30T00:06:58.078Z,10.27
2018-03-30T00:09:38.623Z,10.83
2018-03-30T00:12:06.373Z,11.43
2018-03-30T00:14:34.224Z,11.68
2018-03-30T00:17:02.084Z,11.03
2018-03-30T00:19:29.940Z,11.50
2018-03-30T00:21:57.779Z,11.97
2018-03-30T00:24:25.631Z,11.40
2018-03-30T00:26:53.482Z,10.82
2018-03-30T00:29:21.334Z,11.55
2018-03-30T00:31:49.083Z,11.87
2018-03-30T00:34:16.937Z,13.20
2018-03-30T00:36:44.790Z,12.03
2018-03-30T00:39:12.742Z,12.40
2018-03-30T00:41:40.493Z,9.65
2018-03-30T00:44:08.344Z,10.20
2018-03-30T00:46:36.197Z,10.85
2018-03-30T00:49:04.150Z,8.93
2018-03-30T00:51:32.003Z,10.38
2018-03-30T00:53:59.792Z,9.82
2018-03-30T00:56:27.605Z,9.93
2018-03-30T00:58:55.556Z,9.98
2018-03-30T01:01:23.511Z,9.50
2018-03-30T01:03:51.260Z,9.43
2018-03-30T01:06:19.115Z,11.18
2018-03-30T01:08:46.964Z,9.90
2018-03-30T01:11:14.826Z,10.70
2018-03-30T01:13:42.782Z,11.15
2018-03-30T01:16:11.444Z,11.77
2018-03-30T01:18:39.296Z,10.35
2018-03-30T01:21:07.146Z,11.90
2018-03-30T01:23:34.998Z,11.30
2018-03-30T01:26:02.849Z,10.95
2018-03-30T01:28:30.703Z,10.25
2018-03-30T01:30:58.553Z,11.00
2018-03-30T01:33:26.405Z,11.80
2018-03-30T01:35:54.256Z,11.20
2018-03-30T01:38:22.108Z,11.30
2018-03-30T01:40:49.960Z,11.20
2018-03-30T01:43:17.938Z,11.12
2018-03-30T01:45:46.584Z,11.52
2018-03-30T01:48:15.359Z,12.13
2018-03-30T01:50:43.315Z,11.12
2018-03-30T01:53:11.167Z,12.15
2018-03-30T01:55:39.020Z,11.75
2018-03-30T01:58:06.871Z,11.60
2018-03-30T02:00:34.722Z,11.60
2018-03-30T02:03:02.575Z,11.85
2018-03-30T02:05:30.426Z,12.13
2018-03-30T02:07:58.284Z,12.37
2018-03-30T02:10:26.129Z,11.80
2018-03-30T02:12:53.981Z,12.40
2018-03-30T02:15:21.736Z,11.73
2018-03-30T02:17:49.585Z,12.45
2018-03-30T02:20:17.433Z,11.27
2018-03-30T02:22:45.287Z,12.20
2018-03-30T02:25:13.139Z,12.18
2018-03-30T02:27:40.992Z,12.45
2018-03-30T02:30:08.845Z,12.35
2018-03-30T02:32:36.592Z,13.45
2018-03-30T02:35:04.444Z,13.43
2018-03-30T02:37:32.193Z,13.65
2018-03-30T02:40:00.045Z,14.77
2018-03-30T02:42:27.898Z,14.38
2018-03-30T02:44:55.751Z,17.37
2018-03-30T02:47:23.600Z,15.52
2018-03-30T02:49:51.452Z,14.40
2018-03-30T02:52:19.303Z,14.77
2018-03-30T02:54:47.097Z,15.52
2018-03-30T02:57:14.905Z,16.23
2018-03-30T02:59:42.858Z,15.75
2018-03-30T03:02:10.714Z,17.10
2018-03-30T03:04:38.565Z,15.43
2018-03-30T03:07:06.421Z,15.10
2018-03-30T03:09:34.166Z,14.55
2018-03-30T03:12:02.016Z,14.48
2018-03-30T03:14:29.869Z,13.75
2018-03-30T03:16:57.721Z,13.55
2018-03-30T03:19:25.576Z,13.30
2018-03-30T03:21:53.423Z,13.80
2018-03-30T03:24:21.275Z,12.77
2018-03-30T03:26:49.127Z,15.00
2018-03-30T03:29:17.696Z,14.02
2018-03-30T03:31:45.548Z,12.98
2018-03-30T03:34:13.501Z,13.40
2018-03-30T03:36:41.358Z,13.88
2018-03-30T03:39:09.143Z,13.90
2018-03-30T03:41:36.956Z,15.35
2018-03-30T03:44:04.808Z,14.77
2018-03-30T03:46:32.659Z,15.80
2018-03-30T03:49:00.587Z,15.00
2018-03-30T03:51:28.681Z,15.25
2018-03-30T03:53:57.238Z,13.77
2018-03-30T03:56:25.092Z,13.55
2018-03-30T03:58:52.942Z,12.80
2018-03-30T04:01:20.793Z,13.05
2018-03-30T04:03:48.645Z,13.38
2018-03-30T04:06:16.496Z,14.18
2018-03-30T04:08:44.349Z,14.30
2018-03-30T04:11:12.138Z,14.25
2018-03-30T04:13:39.953Z,14.02
2018-03-30T04:16:07.706Z,14.00
2018-03-30T04:18:35.556Z,13.70
2018-03-30T04:21:03.447Z,13.80
2018-03-30T04:23:31.358Z,13.60
2018-03-30T04:25:59.211Z,12.90
2018-03-30T04:28:27.063Z,13.35
2018-03-30T04:30:54.914Z,13.93
2018-03-30T04:33:22.870Z,13.38
2018-03-30T04:35:50.731Z,13.55
2018-03-30T04:38:18.570Z,13.60
2018-03-30T04:40:46.422Z,14.10
2018-03-30T04:43:14.275Z,12.95
2018-03-30T04:45:42.027Z,13.85
2018-03-30T04:48:09.879Z,12.48
2018-03-30T04:50:37.732Z,13.95
2018-03-30T04:53:05.582Z,12.55
2018-03-30T04:55:33.433Z,12.48
2018-03-30T04:58:01.285Z,14.02
2018-03-30T05:00:29.034Z,13.77
2018-03-30T05:02:56.886Z,14.18
2018-03-30T05:05:24.738Z,13.50
2018-03-30T05:07:52.617Z,12.70
2018-03-30T05:10:20.339Z,13.70
2018-03-30T05:12:48.086Z,12.70
2018-03-30T05:15:15.836Z,12.90
2018-03-30T05:17:43.688Z,12.23
2018-03-30T05:20:11.440Z,13.00
2018-03-30T05:22:39.293Z,11.32
2018-03-30T05:25:07.145Z,12.37
2018-03-30T05:27:34.997Z,12.32
2018-03-30T05:30:02.849Z,10.85
2018-03-30T05:32:30.703Z,12.30
2018-03-30T05:34:58.561Z,12.13
2018-03-30T05:37:27.167Z,10.85
2018-03-30T05:39:54.971Z,11.30
2018-03-30T05:42:22.822Z,11.48
2018-03-30T05:44:50.677Z,10.80
2018-03-30T05:47:18.630Z,11.55
2018-03-30T05:49:46.483Z,11.27
2018-03-30T05:52:14.332Z,11.20
2018-03-30T05:54:42.192Z,11.73
2018-03-30T05:57:10.039Z,11.18
2018-03-30T05:59:37.892Z,11.98
2018-03-30T06:02:05.757Z,12.27
2018-03-30T06:04:34.252Z,13.80
2018-03-30T06:07:02.166Z,11.40
2018-03-30T06:09:29.952Z,11.85
2018-03-30T06:11:57.763Z,10.57
2018-03-30T06:14:25.717Z,11.40
2018-03-30T06:16:53.715Z,10.95
2018-03-30T06:19:21.544Z,12.32
2018-03-30T06:21:50.092Z,12.95
2018-03-30T06:24:17.943Z,12.27
2018-03-30T06:26:45.806Z,14.00
2018-03-30T06:29:13.752Z,12.63
2018-03-30T06:31:41.713Z,12.93
2018-03-30T06:34:09.457Z,13.00
2018-03-30T06:36:38.191Z,12.60
2018-03-30T06:39:06.100Z,12.10
2018-03-30T06:41:34.650Z,11.63
2018-03-30T06:44:02.606Z,12.35
2018-03-30T06:46:30.457Z,12.77
2018-03-30T06:48:58.306Z,12.95
2018-03-30T06:51:26.004Z,13.80
2018-03-30T06:53:53.806Z,14.15
2018-03-30T06:56:21.758Z,13.77
2018-03-30T06:58:49.610Z,13.60
2018-03-30T07:01:17.477Z,13.32
2018-03-30T07:03:45.317Z,12.35
2018-03-30T07:06:13.172Z,12.40
2018-03-30T07:08:40.958Z,14.23
2018-03-30T07:11:08.769Z,13.65
2018-03-30T07:13:36.620Z,12.63
2018-03-30T07:16:04.577Z,12.85
2018-03-30T07:18:32.426Z,11.32
2018-03-30T07:21:00.112Z,12.25
2018-03-30T07:23:27.925Z,10.37
2018-03-30T07:25:55.776Z,11.00
2018-03-30T07:28:23.628Z,11.07
2018-03-30T07:30:51.480Z,10.70
2018-03-30T07:33:19.332Z,10.33
2018-03-30T07:35:47.183Z,11.38
2018-03-30T07:38:15.036Z,11.75
2018-03-30T07:40:42.992Z,11.40
2018-03-30T07:43:10.844Z,11.00
2018-03-30T07:45:38.695Z,10.43
2018-03-30T07:48:06.548Z,11.67
2018-03-30T07:50:34.399Z,12.23
2018-03-30T07:53:02.252Z,11.77
2018-03-30T07:55:30.017Z,12.20
2018-03-30T07:57:57.851Z,11.50
2018-03-30T08:00:25.601Z,12.17
2018-03-30T08:02:53.457Z,12.50
2018-03-30T08:05:21.208Z,12.50
2018-03-30T08:07:49.054Z,12.40
2018-03-30T08:10:16.805Z,12.90
2018-03-30T08:12:44.657Z,11.73
2018-03-30T08:15:12.509Z,13.30
2018-03-30T08:17:40.361Z,11.10
2018-03-30T08:20:08.213Z,13.20
2018-03-30T08:22:35.989Z,12.43
2018-03-30T08:25:04.634Z,12.87
2018-03-30T08:27:32.486Z,11.97
2018-03-30T08:30:00.233Z,12.77
2018-03-30T08:32:27.983Z,12.00
2018-03-30T08:34:55.834Z,13.10
2018-03-30T08:37:23.529Z,12.00
2018-03-30T08:39:51.333Z,11.73
2018-03-30T08:42:19.185Z,11.93
2018-03-30T08:44:47.036Z,12.30
2018-03-30T08:47:14.888Z,12.50
2018-03-30T08:49:42.640Z,12.80
2018-03-30T08:52:10.389Z,11.63
2018-03-30T08:54:38.241Z,12.07
2018-03-30T08:57:06.094Z,10.50
2018-03-30T08:59:33.945Z,10.37
2018-03-30T09:02:01.797Z,9.90
2018-03-30T09:04:29.649Z,11.27
2018-03-30T09:06:57.397Z,10.70
2018-03-30T09:09:25.145Z,11.50
2018-03-30T09:11:52.998Z,12.30
2018-03-30T09:14:20.849Z,10.07
2018-03-30T09:16:48.598Z,9.97
2018-03-30T09:19:16.451Z,9.30
2018-03-30T09:21:44.303Z,9.13
2018-03-30T09:24:12.156Z,10.07
2018-03-30T09:26:39.906Z,10.13
2018-03-30T09:29:07.757Z,9.93
2018-03-30T09:31:35.712Z,10.97
2018-03-30T09:34:03.461Z,9.57
2018-03-30T09:36:31.314Z,10.87
2018-03-30T09:38:59.165Z,10.40
2018-03-30T09:41:27.017Z,10.17
2018-03-30T09:43:54.867Z,10.43
2018-03-30T09:46:22.822Z,10.27
2018-03-30T09:48:50.678Z,10.43
2018-03-30T09:51:18.525Z,11.13
2018-03-30T09:53:46.378Z,11.33
2018-03-30T09:56:14.230Z,10.20
2018-03-30T09:58:42.083Z,9.97
2018-03-30T10:01:15.565Z,10.07
2018-03-30T10:03:43.415Z,10.63
2018-03-30T10:06:11.167Z,11.50
2018-03-30T10:08:38.917Z,11.17
2018-03-30T10:11:06.769Z,10.13
2018-03-30T10:13:34.622Z,10.30
2018-03-30T10:16:02.474Z,9.40
2018-03-30T10:18:30.325Z,9.43
2018-03-30T10:20:58.074Z,8.13
2018-03-30T10:23:25.926Z,7.40
2018-03-30T10:25:53.882Z,6.53
2018-03-30T10:28:22.447Z,5.90
2018-03-30T10:30:50.197Z,4.70
2018-03-30T10:33:17.947Z,5.00
2018-03-30T10:35:45.797Z,4.80
2018-03-30T10:38:13.759Z,4.47
2018-03-30T10:40:41.503Z,4.37
2018-03-30T10:43:09.253Z,4.53
2018-03-30T10:45:37.207Z,4.07
2018-03-30T10:48:05.059Z,4.90
2018-03-30T10:50:32.910Z,4.30
2018-03-30T10:53:00.660Z,4.10
2018-03-30T10:55:28.510Z,4.07
2018-03-30T10:57:56.362Z,3.97
2018-03-30T11:00:24.168Z,4.37
2018-03-30T11:02:51.963Z,4.40
2018-03-30T11:05:19.875Z,3.40
2018-03-30T11:07:47.669Z,4.00
2018-03-30T11:10:15.522Z,4.33
2018-03-30T11:12:43.377Z,3.00
2018-03-30T11:15:11.124Z,3.27
2018-03-30T11:17:38.975Z,2.57
2018-03-30T11:20:06.723Z,2.60
2018-03-30T11:22:34.577Z,2.30
2018-03-30T11:25:02.429Z,2.30
2018-03-30T11:27:30.387Z,1.30
2018-03-30T11:29:58.233Z,1.73
2018-03-30T11:32:26.085Z,1.80
2018-03-30T11:34:53.834Z,1.50
2018-03-30T11:37:21.685Z,1.40
2018-03-30T11:39:49.537Z,1.17
2018-03-30T11:42:17.391Z,1.07
2018-03-30T11:44:46.167Z,1.20
2018-03-30T11:47:14.013Z,1.40
2018-03-30T11:49:41.766Z,1.07
2018-03-30T11:52:09.618Z,1.00
2018-03-30T11:54:37.483Z,1.40
2018-03-30T11:57:05.230Z,1.20
2018-03-30T11:59:33.174Z,1.20
2018-03-30T12:02:01.027Z,1.30
2018-03-30T12:04:28.787Z,0.97
2018-03-30T12:06:56.636Z,1.23
2018-03-30T12:09:24.480Z,0.83
2018-03-30T12:11:52.226Z,1.03
2018-03-30T12:14:19.975Z,1.00
2018-03-30T12:16:47.827Z,1.23
2018-03-30T12:19:15.686Z,0.90
2018-03-30T12:21:44.256Z,0.77
2018-03-30T12:24:12.044Z,1.03
2018-03-30T12:26:39.855Z,1.00
2018-03-30T12:29:07.600Z,1.33
2018-03-30T12:31:35.452Z,1.00
2018-03-30T12:34:03.202Z,1.00
2018-03-30T12:36:30.952Z,1.10
2018-03-30T12:38:58.807Z,1.20
2018-03-30T12:41:26.655Z,1.30
2018-03-30T12:43:54.507Z,1.40
2018-03-30T12:46:22.255Z,1.10
2018-03-30T12:48:50.004Z,1.47
2018-03-30T12:51:17.856Z,1.20
2018-03-30T12:53:45.605Z,1.67
2018-03-30T12:56:13.470Z,2.50
2018-03-30T12:58:41.211Z,1.63
2018-03-30T13:01:09.061Z,1.50
2018-03-30T13:03:36.913Z,1.70
2018-03-30T13:06:04.764Z,1.30
2018-03-30T13:08:32.830Z,1.10
2018-03-30T13:11:00.672Z,1.20
2018-03-30T13:13:28.524Z,1.33
2018-03-30T13:15:56.311Z,1.30
2018-03-30T13:18:24.842Z,1.30
2018-03-30T13:20:52.693Z,1.07
2018-03-30T13:23:20.545Z,1.40
2018-03-30T13:25:48.295Z,1.13
2018-03-30T13:28:16.043Z,1.30
2018-03-30T13:30:43.997Z,1.87
2018-03-30T13:33:11.749Z,1.13
2018-03-30T13:35:39.601Z,1.40
2018-03-30T13:38:07.350Z,0.97
2018-03-30T13:40:35.203Z,1.30
2018-03-30T13:43:02.951Z,0.93
2018-03-30T13:45:30.816Z,0.83
2018-03-30T13:47:58.656Z,0.70
2018-03-30T13:50:28.248Z,0.80
2018-03-30T13:53:01.771Z,1.10
2018-03-30T13:55:29.585Z,0.87
2018-03-30T13:58:09.148Z,0.83
2018-03-30T14:00:38.702Z,1.60
2018-03-30T14:03:10.446Z,0.80
2018-03-30T14:06:05.839Z,0.70
2018-03-30T14:08:39.424Z,0.77
2018-03-30T14:11:24.681Z,0.80
2018-03-30T14:13:52.532Z,1.30
2018-03-30T14:16:23.150Z,2.07
2018-03-30T14:18:58.887Z,1.07
2018-03-30T14:21:30.526Z,0.90
2018-03-30T14:23:59.196Z,0.70
2018-03-30T14:26:43.634Z,1.10
2018-03-30T14:29:13.563Z,0.60
2018-03-30T14:31:53.265Z,1.33
2018-03-30T14:34:23.676Z,1.60
2018-03-30T14:37:01.256Z,1.40
2018-03-30T14:39:29.927Z,1.10
2018-03-30T14:41:57.778Z,0.90
2018-03-30T14:44:29.214Z,0.93
2018-03-30T14:46:58.809Z,0.80
2018-03-30T14:49:31.573Z,0.87
2018-03-30T14:55:15.614Z,0.70
2018-03-30T14:57:48.270Z,0.80
2018-03-30T15:00:18.065Z,0.60
2018-03-30T15:02:47.248Z,0.90
2018-03-30T15:05:24.762Z,0.60
2018-03-30T15:08:02.101Z,0.70
2018-03-30T15:10:37.429Z,0.80
2018-03-30T15:13:05.997Z,0.70
2018-03-30T15:18:49.106Z,0.90
2018-03-30T15:21:18.492Z,0.80
2018-03-30T15:23:48.192Z,0.60
2018-03-30T15:26:19.965Z,0.90
2018-03-30T15:28:48.705Z,1.00
2018-03-30T15:31:30.013Z,0.60
2018-03-30T15:33:58.680Z,0.70
2018-03-30T15:39:25.603Z,0.90
2018-03-30T15:41:55.268Z,1.30
2018-03-30T15:44:23.120Z,0.90
2018-03-30T15:46:50.972Z,1.00
2018-03-30T15:49:19.848Z,0.80
2018-03-30T15:51:48.518Z,0.70
2018-03-30T15:54:15.858Z,1.30
2018-03-30T15:56:58.558Z,1.00
2018-03-30T15:59:26.411Z,0.77
2018-03-30T16:01:54.264Z,0.93
2018-03-30T16:04:22.121Z,1.00
2018-03-30T16:06:49.862Z,1.13
2018-03-30T16:09:21.403Z,1.07
2018-03-30T16:11:55.723Z,1.00
2018-03-30T16:14:23.863Z,0.80
2018-03-30T16:16:51.714Z,1.10
2018-03-30T16:19:19.053Z,0.87
2018-03-30T16:21:46.392Z,1.23
2018-03-30T16:24:13.741Z,1.20
2018-03-30T16:26:41.076Z,1.50
2018-03-30T16:29:08.416Z,1.20
2018-03-30T16:31:35.755Z,1.00
2018-03-30T16:34:03.096Z,1.10
2018-03-30T16:36:30.437Z,1.40
2018-03-30T16:38:57.716Z,1.30
2018-03-30T16:41:24.916Z,1.80
2018-03-30T16:43:52.251Z,1.90
2018-03-30T16:46:19.588Z,1.60
2018-03-30T16:48:46.927Z,2.37
2018-03-30T16:51:14.272Z,2.77
2018-03-30T16:53:41.611Z,1.63
2018-03-30T16:56:08.950Z,1.33
2018-03-30T16:58:36.289Z,1.23
2018-03-30T17:01:03.633Z,1.30
2018-03-30T17:03:30.969Z,1.33
2018-03-30T17:05:58.309Z,1.60
2018-03-30T17:08:25.631Z,1.40
2018-03-30T17:10:52.987Z,1.40
2018-03-30T17:13:20.331Z,1.27
2018-03-30T17:15:47.975Z,1.67
2018-03-30T17:18:15.252Z,1.40
2018-03-30T17:20:43.483Z,1.43
2018-03-30T17:23:11.533Z,1.70
2018-03-30T17:25:38.875Z,1.37
2018-03-30T17:28:06.213Z,1.10
2018-03-30T17:30:33.565Z,1.17
2018-03-30T17:33:00.996Z,1.57
2018-03-30T17:35:29.152Z,1.60
2018-03-30T17:37:56.492Z,1.40
2018-03-30T17:40:23.901Z,1.70
2018-03-30T17:42:51.185Z,1.37
2018-03-30T17:45:18.615Z,1.50
2018-03-30T17:47:46.057Z,1.53
2018-03-30T17:50:13.607Z,1.70
2018-03-30T17:52:41.201Z,2.10
2018-03-30T17:55:08.429Z,1.47
2018-03-30T17:57:35.832Z,1.90
2018-03-30T18:00:03.171Z,1.97
2018-03-30T18:02:30.508Z,1.90
2018-03-30T18:04:57.855Z,2.67
2018-03-30T18:07:25.157Z,2.50
2018-03-30T18:09:52.632Z,2.03
2018-03-30T18:12:19.968Z,1.90
2018-03-30T18:14:47.306Z,1.83
2018-03-30T18:17:14.545Z,2.00
2018-03-30T18:19:41.895Z,2.37
2018-03-30T18:22:09.333Z,2.50
2018-03-30T18:24:36.674Z,2.40
2018-03-30T18:27:04.012Z,3.10
2018-03-30T18:29:31.352Z,2.40
2018-03-30T18:31:58.693Z,2.50
2018-03-30T18:34:26.032Z,2.90
2018-03-30T18:36:53.371Z,2.60
2018-03-30T18:39:20.713Z,2.83
2018-03-30T18:41:48.052Z,3.10
2018-03-30T18:44:15.391Z,2.67
2018-03-30T18:46:42.733Z,2.70
2018-03-30T18:49:09.971Z,3.00
2018-03-30T18:51:37.320Z,3.23
2018-03-30T18:54:04.653Z,2.97
2018-03-30T18:56:31.994Z,3.40
2018-03-30T18:58:59.229Z,3.63
2018-03-30T19:01:26.539Z,3.77
2018-03-30T19:03:53.912Z,3.10
2018-03-30T19:06:21.104Z,2.33
2018-03-30T19:08:48.585Z,2.43
2018-03-30T19:11:15.925Z,2.40
2018-03-30T19:13:43.298Z,2.00
2018-03-30T19:16:11.325Z,1.70
2018-03-30T19:18:38.674Z,1.50
2018-03-30T19:21:06.005Z,1.50
2018-03-30T19:23:33.232Z,1.80
2018-03-30T19:26:00.420Z,1.90
2018-03-30T19:28:27.651Z,1.80
2018-03-30T19:30:55.672Z,2.50
2018-03-30T19:33:23.011Z,3.20
2018-03-30T19:35:50.407Z,2.87
2018-03-30T19:38:17.692Z,2.93
2018-03-30T19:40:45.028Z,3.33
2018-03-30T19:43:12.371Z,3.70
2018-03-30T19:45:39.711Z,3.10
2018-03-30T19:48:07.049Z,3.00
2018-03-30T19:50:34.389Z,3.23
2018-03-30T19:55:25.938Z,2.77
2018-03-30T19:57:53.137Z,2.93
2018-03-30T20:00:20.484Z,3.10
2018-03-30T20:02:47.817Z,3.80
2018-03-30T20:05:15.008Z,3.50
2018-03-30T20:07:42.289Z,4.33
2018-03-30T20:10:09.737Z,4.93
2018-03-30T20:12:37.008Z,5.33
2018-03-30T20:15:04.308Z,5.53
2018-03-30T20:17:31.647Z,5.10
2018-03-30T20:19:58.924Z,5.40
2018-03-30T20:22:26.224Z,5.03
2018-03-30T20:24:53.564Z,5.03
2018-03-30T20:27:20.904Z,5.10
2018-03-30T20:29:48.188Z,5.10
2018-03-30T20:32:15.368Z,5.87
2018-03-30T20:34:42.721Z,5.80
2018-03-30T20:37:09.944Z,5.70
2018-03-30T20:39:37.128Z,6.30
2018-03-30T20:42:05.153Z,6.63
2018-03-30T20:44:32.390Z,6.03
2018-03-30T20:46:59.633Z,5.70
2018-03-30T20:49:26.821Z,5.50
2018-03-30T20:51:54.098Z,6.23
2018-03-30T20:54:21.460Z,5.60
2018-03-30T20:56:49.497Z,6.33
2018-03-30T20:59:16.774Z,5.83
2018-03-30T21:01:44.073Z,5.70
2018-03-30T21:04:14.484Z,6.00
2018-03-30T21:06:41.826Z,5.30
2018-03-30T21:09:09.165Z,5.80
2018-03-30T21:11:36.504Z,5.30
2018-03-30T21:14:03.733Z,5.80
2018-03-30T21:16:30.979Z,5.97
2018-03-30T21:18:58.318Z,5.17
2018-03-30T21:21:25.659Z,4.47
2018-03-30T21:23:53.001Z,3.87
2018-03-30T21:26:20.442Z,4.60
2018-03-30T21:28:47.885Z,4.20
2018-03-30T21:31:15.228Z,3.60
2018-03-30T21:33:42.564Z,3.20
2018-03-30T21:36:09.843Z,2.93
2018-03-30T21:38:37.244Z,3.83
2018-03-30T21:41:04.584Z,4.40
2018-03-30T21:43:31.927Z,4.60
2018-03-30T21:45:59.262Z,4.90
2018-03-30T21:48:26.602Z,4.43
2018-03-30T21:50:54.044Z,4.30
2018-03-30T21:53:21.384Z,5.00
2018-03-30T21:55:48.724Z,4.73
2018-03-30T21:58:15.908Z,5.53
2018-03-30T22:00:43.132Z,5.57
2018-03-30T22:03:11.094Z,5.27
2018-03-30T22:05:38.392Z,5.43
2018-03-30T22:08:05.735Z,4.43
2018-03-30T22:10:32.969Z,4.03
2018-03-30T22:13:00.308Z,3.73
2018-03-30T22:15:27.649Z,3.20
2018-03-30T22:17:55.090Z,2.53
2018-03-30T22:20:22.430Z,2.43
2018-03-30T22:22:49.770Z,2.10
2018-03-30T22:25:17.047Z,3.00
2018-03-30T22:27:45.088Z,2.47
2018-03-30T22:30:12.309Z,1.77
2018-03-30T22:32:39.487Z,1.60
2018-03-30T22:35:06.708Z,1.77
2018-03-30T22:37:34.937Z,1.77
2018-03-30T22:40:02.378Z,1.57
2018-03-30T22:42:29.617Z,1.47
2018-03-30T22:44:57.009Z,1.70
2018-03-30T22:47:24.232Z,1.30
2018-03-30T22:49:51.636Z,1.57
2018-03-30T22:52:19.693Z,2.07
2018-03-30T22:54:47.032Z,1.70
2018-03-30T22:57:14.473Z,1.30
2018-03-30T22:59:41.816Z,1.20
2018-03-30T23:02:09.155Z,1.23
2018-03-30T23:04:36.495Z,1.50
2018-03-30T23:07:03.893Z,1.30
2018-03-30T23:09:31.175Z,1.60
2018-03-30T23:11:58.619Z,1.53
2018-03-30T23:14:25.956Z,1.43
2018-03-30T23:16:53.397Z,1.20
2018-03-30T23:19:20.738Z,1.10
2018-03-30T23:21:48.076Z,0.93
2018-03-30T23:24:15.417Z,1.07
2018-03-30T23:26:42.760Z,0.70
2018-03-30T23:29:10.100Z,0.90
2018-03-30T23:31:37.440Z,0.97
2018-03-30T23:34:04.779Z,1.10
2018-03-30T23:36:32.109Z,0.80
2018-03-30T23:38:59.458Z,0.80
2018-03-30T23:41:26.798Z,1.03
2018-03-30T23:43:54.137Z,0.70
2018-03-30T23:46:21.478Z,1.10
2018-03-30T23:48:48.816Z,0.77
2018-03-30T23:51:16.157Z,0.70
2018-03-30T23:53:43.601Z,0.70
2018-03-30T23:56:10.941Z,1.00
2018-03-30T23:58:38.281Z,0.90
